LETO/TOJ METAR and TAF weather

Enter ICAO airport designator
Station Type Date Time Source
LETO METAR 2020/07/11 04:00 UTC NOAA

LETO 110400Z 04003KT CAVOK 20/14 Q1017 NOSIG


Station Type Date Time Source
LETO Decoded METAR 2020/07/11 04:00 UTC NOAA

Madrid / Torrejon, Spain (LETO) 40-29N 003-27W 611M
Jul 11, 2020 - 12:00 AM EDT / 2020.07.11 0400 UTC
Wind: from the NE (040 degrees) at 3 MPH (3 KT):0
Visibility: greater than 7 mile(s):0
Temperature: 68 F (20 C)
Dew Point: 57 F (14 C)
Relative Humidity: 68%
Pressure (altimeter): 30.03 in. Hg (1017 hPa)
ob: LETO 110400Z 04003KT CAVOK 20/14 Q1017 NOSIG
cycle: 4

Station Type Date Time Source
LETO TAF 2020/07/10 18:27 UTC NOAA

TAF LETO 101700Z 1018/1118 VRB05KT CAVOK TX37/1116Z TN19/1106Z
BECMG 1018/1020 03010KT
BECMG 1108/1111 09010KT
BECMG 1112/1114 15010KT

Example: see airport list